sensor_id;sensor_type;location;lat;lon;timestamp;temperature;humidity
29729;DHT22;20055;51.498;11.960;2022-10-14T00:02:09;13.60;99.90
29729;DHT22;20055;51.498;11.960;2022-10-14T00:04:47;13.60;99.90
29729;DHT22;20055;51.498;11.960;2022-10-14T00:07:23;13.80;99.90
29729;DHT22;20055;51.498;11.960;2022-10-14T00:10:00;13.50;99.90
29729;DHT22;20055;51.498;11.960;2022-10-14T00:12:37;13.80;99.90
29729;DHT22;20055;51.498;11.960;2022-10-14T00:15:13;13.40;99.90
29729;DHT22;20055;51.498;11.960;2022-10-14T00:17:50;14.20;99.90
29729;DHT22;20055;51.498;11.960;2022-10-14T00:20:30;13.30;99.90
29729;DHT22;20055;51.498;11.960;2022-10-14T00:23:06;14.00;99.90
29729;DHT22;20055;51.498;11.960;2022-10-14T00:25:43;13.30;99.90
29729;DHT22;20055;51.498;11.960;2022-10-14T00:28:19;13.80;99.90
29729;DHT22;20055;51.498;11.960;2022-10-14T00:30:58;13.50;99.90
29729;DHT22;20055;51.498;11.960;2022-10-14T00:33:36;13.60;99.90
29729;DHT22;20055;51.498;11.960;2022-10-14T00:36:15;13.80;99.90
29729;DHT22;20055;51.498;11.960;2022-10-14T00:38:53;13.00;99.90
29729;DHT22;20055;51.498;11.960;2022-10-14T00:41:33;13.30;99.90
29729;DHT22;20055;51.498;11.960;2022-10-14T00:46:51;13.60;99.90
29729;DHT22;20055;51.498;11.960;2022-10-14T00:49:33;13.40;99.90
29729;DHT22;20055;51.498;11.960;2022-10-14T00:52:16;13.90;99.90
29729;DHT22;20055;51.498;11.960;2022-10-14T00:54:57;13.70;99.90
29729;DHT22;20055;51.498;11.960;2022-10-14T00:57:37;13.80;99.90
29729;DHT22;20055;51.498;11.960;2022-10-14T01:00:16;13.60;99.90
29729;DHT22;20055;51.498;11.960;2022-10-14T01:02:55;13.50;99.90
29729;DHT22;20055;51.498;11.960;2022-10-14T01:05:39;13.90;99.90
29729;DHT22;20055;51.498;11.960;2022-10-14T01:08:36;13.90;99.90
29729;DHT22;20055;51.498;11.960;2022-10-14T01:17:48;13.70;99.90
29729;DHT22;20055;51.498;11.960;2022-10-14T01:32:48;13.90;99.90
29729;DHT22;20055;51.498;11.960;2022-10-14T01:38:29;13.70;99.90
29729;DHT22;20055;51.498;11.960;2022-10-14T01:41:34;13.60;99.90
29729;DHT22;20055;51.498;11.960;2022-10-14T01:44:13;13.30;99.90
29729;DHT22;20055;51.498;11.960;2022-10-14T01:46:53;13.30;99.90
29729;DHT22;20055;51.498;11.960;2022-10-14T01:49:40;13.60;99.90
29729;DHT22;20055;51.498;11.960;2022-10-14T01:52:23;13.90;99.90
29729;DHT22;20055;51.498;11.960;2022-10-14T01:55:07;13.50;99.90
29729;DHT22;20055;51.498;11.960;2022-10-14T01:57:46;13.60;99.90
29729;DHT22;20055;51.498;11.960;2022-10-14T02:00:26;14.00;99.90
29729;DHT22;20055;51.498;11.960;2022-10-14T02:03:03;14.00;99.90
29729;DHT22;20055;51.498;11.960;2022-10-14T02:05:47;13.70;99.90
29729;DHT22;20055;51.498;11.960;2022-10-14T02:11:28;13.70;99.90
29729;DHT22;20055;51.498;11.960;2022-10-14T02:14:11;14.00;99.90
29729;DHT22;20055;51.498;11.960;2022-10-14T02:16:55;14.30;99.90
29729;DHT22;20055;51.498;11.960;2022-10-14T02:22:30;14.00;99.90
29729;DHT22;20055;51.498;11.960;2022-10-14T02:25:19;13.90;99.90
29729;DHT22;20055;51.498;11.960;2022-10-14T02:27:58;13.70;99.90
29729;DHT22;20055;51.498;11.960;2022-10-14T02:30:39;13.70;99.90
29729;DHT22;20055;51.498;11.960;2022-10-14T02:33:41;13.80;99.90
29729;DHT22;20055;51.498;11.960;2022-10-14T02:36:20;13.50;99.90
29729;DHT22;20055;51.498;11.960;2022-10-14T02:38:59;13.90;99.90
29729;DHT22;20055;51.498;11.960;2022-10-14T02:41:36;13.80;99.90
29729;DHT22;20055;51.498;11.960;2022-10-14T02:44:14;14.10;99.90
29729;DHT22;20055;51.498;11.960;2022-10-14T02:46:50;13.70;99.90
29729;DHT22;20055;51.498;11.960;2022-10-14T02:49:30;13.90;99.90
29729;DHT22;20055;51.498;11.960;2022-10-14T02:52:07;13.90;99.90
29729;DHT22;20055;51.498;11.960;2022-10-14T02:54:43;13.50;99.90
29729;DHT22;20055;51.498;11.960;2022-10-14T02:57:20;14.00;99.90
29729;DHT22;20055;51.498;11.960;2022-10-14T02:59:58;13.90;99.90
29729;DHT22;20055;51.498;11.960;2022-10-14T03:02:35;13.40;99.90
29729;DHT22;20055;51.498;11.960;2022-10-14T03:05:13;13.90;99.90
29729;DHT22;20055;51.498;11.960;2022-10-14T03:07:50;14.30;99.90
29729;DHT22;20055;51.498;11.960;2022-10-14T03:10:29;13.70;99.90
29729;DHT22;20055;51.498;11.960;2022-10-14T03:13:08;13.80;99.90
29729;DHT22;20055;51.498;11.960;2022-10-14T03:15:51;13.70;99.90
29729;DHT22;20055;51.498;11.960;2022-10-14T03:18:29;14.00;99.90
29729;DHT22;20055;51.498;11.960;2022-10-14T03:21:12;14.30;99.90
29729;DHT22;20055;51.498;11.960;2022-10-14T03:23:52;13.50;99.90
29729;DHT22;20055;51.498;11.960;2022-10-14T03:26:33;13.90;99.90
29729;DHT22;20055;51.498;11.960;2022-10-14T03:29:10;13.50;99.90
29729;DHT22;20055;51.498;11.960;2022-10-14T03:32:07;13.90;99.90
29729;DHT22;20055;51.498;11.960;2022-10-14T03:35:16;13.80;99.90
29729;DHT22;20055;51.498;11.960;2022-10-14T03:37:56;13.50;99.90
29729;DHT22;20055;51.498;11.960;2022-10-14T03:40:39;13.50;99.90
29729;DHT22;20055;51.498;11.960;2022-10-14T03:43:18;13.90;99.90
29729;DHT22;20055;51.498;11.960;2022-10-14T03:46:01;13.70;99.90
29729;DHT22;20055;51.498;11.960;2022-10-14T03:48:38;13.90;99.90
29729;DHT22;20055;51.498;11.960;2022-10-14T03:51:15;13.40;99.90
29729;DHT22;20055;51.498;11.960;2022-10-14T03:53:53;13.40;99.90
29729;DHT22;20055;51.498;11.960;2022-10-14T03:56:36;13.20;99.90
29729;DHT22;20055;51.498;11.960;2022-10-14T03:59:14;14.00;99.90
29729;DHT22;20055;51.498;11.960;2022-10-14T04:01:57;14.40;99.90
29729;DHT22;20055;51.498;11.960;2022-10-14T04:04:35;13.90;99.90
29729;DHT22;20055;51.498;11.960;2022-10-14T04:07:12;13.80;99.90
29729;DHT22;20055;51.498;11.960;2022-10-14T04:09:56;14.00;99.90
29729;DHT22;20055;51.498;11.960;2022-10-14T04:12:33;13.80;99.90
29729;DHT22;20055;51.498;11.960;2022-10-14T04:15:16;13.50;99.90
29729;DHT22;20055;51.498;11.960;2022-10-14T04:18:12;13.70;99.90
29729;DHT22;20055;51.498;11.960;2022-10-14T04:20:50;13.60;99.90
29729;DHT22;20055;51.498;11.960;2022-10-14T04:23:30;13.60;99.90
29729;DHT22;20055;51.498;11.960;2022-10-14T04:26:13;13.70;99.90
29729;DHT22;20055;51.498;11.960;2022-10-14T04:28:50;12.90;99.90
29729;DHT22;20055;51.498;11.960;2022-10-14T04:31:41;13.70;99.90
29729;DHT22;20055;51.498;11.960;2022-10-14T04:34:17;13.50;99.90
29729;DHT22;20055;51.498;11.960;2022-10-14T04:36:54;13.40;99.90
29729;DHT22;20055;51.498;11.960;2022-10-14T04:39:50;13.60;99.90
29729;DHT22;20055;51.498;11.960;2022-10-14T04:42:28;14.00;99.90
29729;DHT22;20055;51.498;11.960;2022-10-14T04:45:11;13.20;99.90
29729;DHT22;20055;51.498;11.960;2022-10-14T04:47:54;13.50;99.90
29729;DHT22;20055;51.498;11.960;2022-10-14T04:50:34;13.00;99.90
29729;DHT22;20055;51.498;11.960;2022-10-14T04:53:37;13.20;99.90
29729;DHT22;20055;51.498;11.960;2022-10-14T04:56:30;13.10;99.90
29729;DHT22;20055;51.498;11.960;2022-10-14T04:59:12;13.00;99.90
29729;DHT22;20055;51.498;11.960;2022-10-14T05:02:15;13.00;99.90
29729;DHT22;20055;51.498;11.960;2022-10-14T05:05:02;13.40;99.90
29729;DHT22;20055;51.498;11.960;2022-10-14T05:07:43;15.10;99.90
29729;DHT22;20055;51.498;11.960;2022-10-14T05:10:39;13.10;99.90
29729;DHT22;20055;51.498;11.960;2022-10-14T05:13:20;12.50;99.90
29729;DHT22;20055;51.498;11.960;2022-10-14T05:16:07;12.90;99.90
29729;DHT22;20055;51.498;11.960;2022-10-14T05:18:44;12.90;99.90
29729;DHT22;20055;51.498;11.960;2022-10-14T05:21:23;12.60;99.90
29729;DHT22;20055;51.498;11.960;2022-10-14T05:24:18;13.10;99.90
29729;DHT22;20055;51.498;11.960;2022-10-14T05:26:57;13.00;99.90
29729;DHT22;20055;51.498;11.960;2022-10-14T05:29:35;12.90;99.90
29729;DHT22;20055;51.498;11.960;2022-10-14T05:32:14;12.80;99.90
29729;DHT22;20055;51.498;11.960;2022-10-14T05:34:55;12.40;99.90
29729;DHT22;20055;51.498;11.960;2022-10-14T05:37:38;12.70;99.90
29729;DHT22;20055;51.498;11.960;2022-10-14T05:40:14;12.60;99.90
29729;DHT22;20055;51.498;11.960;2022-10-14T05:42:51;12.60;99.90
29729;DHT22;20055;51.498;11.960;2022-10-14T05:45:31;12.10;99.90
29729;DHT22;20055;51.498;11.960;2022-10-14T05:48:07;12.80;99.90
29729;DHT22;20055;51.498;11.960;2022-10-14T05:50:45;12.10;99.90
29729;DHT22;20055;51.498;11.960;2022-10-14T05:53:27;12.50;99.90
29729;DHT22;20055;51.498;11.960;2022-10-14T05:56:08;12.40;99.90
29729;DHT22;20055;51.498;11.960;2022-10-14T05:58:46;12.30;99.90
29729;DHT22;20055;51.498;11.960;2022-10-14T06:01:25;12.40;99.90
29729;DHT22;20055;51.498;11.960;2022-10-14T06:04:01;12.60;99.90
29729;DHT22;20055;51.498;11.960;2022-10-14T06:06:38;13.00;99.90
29729;DHT22;20055;51.498;11.960;2022-10-14T06:09:14;13.40;99.90
29729;DHT22;20055;51.498;11.960;2022-10-14T06:11:51;13.00;99.90
29729;DHT22;20055;51.498;11.960;2022-10-14T06:14:28;12.90;99.90
29729;DHT22;20055;51.498;11.960;2022-10-14T06:17:05;13.10;99.90
29729;DHT22;20055;51.498;11.960;2022-10-14T06:19:42;12.90;99.90
29729;DHT22;20055;51.498;11.960;2022-10-14T06:22:19;13.40;99.90
29729;DHT22;20055;51.498;11.960;2022-10-14T06:24:56;13.90;99.90
29729;DHT22;20055;51.498;11.960;2022-10-14T06:27:32;13.90;99.90
29729;DHT22;20055;51.498;11.960;2022-10-14T06:30:10;13.20;99.90
29729;DHT22;20055;51.498;11.960;2022-10-14T06:32:47;13.30;99.90
29729;DHT22;20055;51.498;11.960;2022-10-14T06:35:24;13.70;99.90
29729;DHT22;20055;51.498;11.960;2022-10-14T06:38:00;13.30;99.90
29729;DHT22;20055;51.498;11.960;2022-10-14T06:40:37;14.30;99.90
29729;DHT22;20055;51.498;11.960;2022-10-14T06:43:14;13.80;99.90
29729;DHT22;20055;51.498;11.960;2022-10-14T06:45:50;14.20;99.90
29729;DHT22;20055;51.498;11.960;2022-10-14T06:48:29;13.90;99.90
29729;DHT22;20055;51.498;11.960;2022-10-14T06:51:06;14.10;99.90
29729;DHT22;20055;51.498;11.960;2022-10-14T06:53:43;14.00;99.90
29729;DHT22;20055;51.498;11.960;2022-10-14T06:56:20;14.00;99.90
29729;DHT22;20055;51.498;11.960;2022-10-14T06:58:56;14.70;99.90
29729;DHT22;20055;51.498;11.960;2022-10-14T07:01:33;14.20;99.90
29729;DHT22;20055;51.498;11.960;2022-10-14T07:04:10;14.60;99.90
29729;DHT22;20055;51.498;11.960;2022-10-14T07:06:46;15.30;99.90
29729;DHT22;20055;51.498;11.960;2022-10-14T07:09:23;14.80;99.90
29729;DHT22;20055;51.498;11.960;2022-10-14T07:12:01;14.60;99.90
29729;DHT22;20055;51.498;11.960;2022-10-14T07:14:38;14.50;99.90
29729;DHT22;20055;51.498;11.960;2022-10-14T07:17:14;14.70;99.90
29729;DHT22;20055;51.498;11.960;2022-10-14T07:19:51;14.60;99.90
29729;DHT22;20055;51.498;11.960;2022-10-14T07:22:28;15.20;99.90
29729;DHT22;20055;51.498;11.960;2022-10-14T07:25:05;14.70;99.90
29729;DHT22;20055;51.498;11.960;2022-10-14T07:27:42;15.10;99.90
29729;DHT22;20055;51.498;11.960;2022-10-14T07:30:19;15.00;99.90
29729;DHT22;20055;51.498;11.960;2022-10-14T07:33:00;15.00;99.90
29729;DHT22;20055;51.498;11.960;2022-10-14T07:35:37;15.20;99.90
29729;DHT22;20055;51.498;11.960;2022-10-14T07:38:15;15.40;99.90
29729;DHT22;20055;51.498;11.960;2022-10-14T07:41:04;15.20;99.90
29729;DHT22;20055;51.498;11.960;2022-10-14T07:44:04;15.90;99.90
29729;DHT22;20055;51.498;11.960;2022-10-14T07:46:43;15.80;99.90
29729;DHT22;20055;51.498;11.960;2022-10-14T07:49:21;15.80;99.90
29729;DHT22;20055;51.498;11.960;2022-10-14T07:51:58;16.10;99.90
29729;DHT22;20055;51.498;11.960;2022-10-14T07:54:35;15.90;99.90
29729;DHT22;20055;51.498;11.960;2022-10-14T07:57:11;15.90;99.90
29729;DHT22;20055;51.498;11.960;2022-10-14T07:59:48;15.60;99.90
29729;DHT22;20055;51.498;11.960;2022-10-14T08:02:25;16.50;99.90
29729;DHT22;20055;51.498;11.960;2022-10-14T08:05:01;15.90;99.90
29729;DHT22;20055;51.498;11.960;2022-10-14T08:07:39;15.80;99.90
29729;DHT22;20055;51.498;11.960;2022-10-14T08:10:16;15.60;99.90
29729;DHT22;20055;51.498;11.960;2022-10-14T08:12:53;15.70;99.90
29729;DHT22;20055;51.498;11.960;2022-10-14T08:15:37;15.80;99.90
29729;DHT22;20055;51.498;11.960;2022-10-14T08:18:15;16.70;99.90
29729;DHT22;20055;51.498;11.960;2022-10-14T08:20:52;16.30;99.90
29729;DHT22;20055;51.498;11.960;2022-10-14T08:23:29;16.60;99.90
29729;DHT22;20055;51.498;11.960;2022-10-14T08:26:30;17.10;99.90
29729;DHT22;20055;51.498;11.960;2022-10-14T08:29:11;17.00;99.90
29729;DHT22;20055;51.498;11.960;2022-10-14T08:31:48;16.80;99.90
29729;DHT22;20055;51.498;11.960;2022-10-14T08:34:25;16.40;99.90
29729;DHT22;20055;51.498;11.960;2022-10-14T08:37:04;16.80;99.90
29729;DHT22;20055;51.498;11.960;2022-10-14T08:39:40;16.30;99.90
29729;DHT22;20055;51.498;11.960;2022-10-14T08:45:14;17.70;99.90
29729;DHT22;20055;51.498;11.960;2022-10-14T08:47:54;17.00;99.90
29729;DHT22;20055;51.498;11.960;2022-10-14T08:50:37;17.50;99.90
29729;DHT22;20055;51.498;11.960;2022-10-14T08:53:23;17.60;99.90
29729;DHT22;20055;51.498;11.960;2022-10-14T08:56:04;17.70;99.90
29729;DHT22;20055;51.498;11.960;2022-10-14T08:58:47;17.60;99.90
29729;DHT22;20055;51.498;11.960;2022-10-14T09:01:33;17.90;99.90
29729;DHT22;20055;51.498;11.960;2022-10-14T09:04:12;17.80;99.90
29729;DHT22;20055;51.498;11.960;2022-10-14T09:06:52;18.50;99.90
29729;DHT22;20055;51.498;11.960;2022-10-14T09:09:39;18.60;99.90
29729;DHT22;20055;51.498;11.960;2022-10-14T09:12:23;18.60;99.90
29729;DHT22;20055;51.498;11.960;2022-10-14T09:18:04;19.70;99.90
29729;DHT22;20055;51.498;11.960;2022-10-14T09:20:43;19.80;99.90
29729;DHT22;20055;51.498;11.960;2022-10-14T09:23:23;18.60;99.90
29729;DHT22;20055;51.498;11.960;2022-10-14T09:26:06;19.40;99.90
29729;DHT22;20055;51.498;11.960;2022-10-14T09:28:44;17.00;99.90
29729;DHT22;20055;51.498;11.960;2022-10-14T09:31:24;18.80;99.90
29729;DHT22;20055;51.498;11.960;2022-10-14T09:34:00;19.00;99.90
29729;DHT22;20055;51.498;11.960;2022-10-14T09:36:37;18.60;99.90
29729;DHT22;20055;51.498;11.960;2022-10-14T09:39:14;18.70;99.90
29729;DHT22;20055;51.498;11.960;2022-10-14T09:41:53;18.70;99.90
29729;DHT22;20055;51.498;11.960;2022-10-14T09:44:30;19.50;99.90
29729;DHT22;20055;51.498;11.960;2022-10-14T09:47:10;18.90;99.90
29729;DHT22;20055;51.498;11.960;2022-10-14T09:49:48;19.00;99.90
29729;DHT22;20055;51.498;11.960;2022-10-14T09:52:28;19.00;99.90
29729;DHT22;20055;51.498;11.960;2022-10-14T09:55:14;20.40;99.90
29729;DHT22;20055;51.498;11.960;2022-10-14T09:58:01;18.70;99.90
29729;DHT22;20055;51.498;11.960;2022-10-14T10:00:39;18.40;99.90
29729;DHT22;20055;51.498;11.960;2022-10-14T10:03:29;18.90;99.90
29729;DHT22;20055;51.498;11.960;2022-10-14T10:06:11;17.80;99.90
29729;DHT22;20055;51.498;11.960;2022-10-14T10:11:33;18.00;99.90
29729;DHT22;20055;51.498;11.960;2022-10-14T10:19:48;19.40;99.90
29729;DHT22;20055;51.498;11.960;2022-10-14T10:22:27;19.70;99.90
29729;DHT22;20055;51.498;11.960;2022-10-14T10:27:46;20.00;99.90
29729;DHT22;20055;51.498;11.960;2022-10-14T10:30:27;20.10;99.90
29729;DHT22;20055;51.498;11.960;2022-10-14T10:44:57;20.10;99.90
29729;DHT22;20055;51.498;11.960;2022-10-14T10:47:43;20.30;99.90
29729;DHT22;20055;51.498;11.960;2022-10-14T10:50:29;20.20;99.90
29729;DHT22;20055;51.498;11.960;2022-10-14T10:53:38;20.30;99.90
29729;DHT22;20055;51.498;11.960;2022-10-14T10:56:40;19.40;99.90
29729;DHT22;20055;51.498;11.960;2022-10-14T11:03:02;19.80;99.90
29729;DHT22;20055;51.498;11.960;2022-10-14T11:08:52;20.00;99.90
29729;DHT22;20055;51.498;11.960;2022-10-14T11:15:17;20.10;99.90
29729;DHT22;20055;51.498;11.960;2022-10-14T11:21:09;19.90;99.90
29729;DHT22;20055;51.498;11.960;2022-10-14T11:40:07;19.80;99.90
29729;DHT22;20055;51.498;11.960;2022-10-14T11:43:17;20.10;99.90
29729;DHT22;20055;51.498;11.960;2022-10-14T11:46:11;19.90;99.90
29729;DHT22;20055;51.498;11.960;2022-10-14T11:49:03;20.20;99.90
29729;DHT22;20055;51.498;11.960;2022-10-14T11:51:59;20.10;99.90
29729;DHT22;20055;51.498;11.960;2022-10-14T11:54:46;20.00;99.90
29729;DHT22;20055;51.498;11.960;2022-10-14T11:57:45;20.00;99.90
29729;DHT22;20055;51.498;11.960;2022-10-14T12:00:29;19.90;99.90
29729;DHT22;20055;51.498;11.960;2022-10-14T12:03:29;19.10;99.90
29729;DHT22;20055;51.498;11.960;2022-10-14T12:06:21;20.10;99.90
29729;DHT22;20055;51.498;11.960;2022-10-14T12:09:35;19.80;99.90
29729;DHT22;20055;51.498;11.960;2022-10-14T12:12:24;20.10;99.90
29729;DHT22;20055;51.498;11.960;2022-10-14T12:15:06;20.20;99.90
29729;DHT22;20055;51.498;11.960;2022-10-14T12:17:57;20.10;99.90
29729;DHT22;20055;51.498;11.960;2022-10-14T12:23:44;20.40;99.90
29729;DHT22;20055;51.498;11.960;2022-10-14T12:28:48;20.70;99.90
29729;DHT22;20055;51.498;11.960;2022-10-14T12:36:46;21.20;99.90
29729;DHT22;20055;51.498;11.960;2022-10-14T12:39:27;20.60;99.90
29729;DHT22;20055;51.498;11.960;2022-10-14T12:42:02;20.70;99.90
29729;DHT22;20055;51.498;11.960;2022-10-14T12:47:04;20.40;99.90
29729;DHT22;20055;51.498;11.960;2022-10-14T12:49:33;20.10;99.90
29729;DHT22;20055;51.498;11.960;2022-10-14T12:52:30;20.20;99.90
29729;DHT22;20055;51.498;11.960;2022-10-14T12:55:00;20.50;99.90
29729;DHT22;20055;51.498;11.960;2022-10-14T12:57:31;20.50;99.90
29729;DHT22;20055;51.498;11.960;2022-10-14T13:00:04;20.50;99.90
29729;DHT22;20055;51.498;11.960;2022-10-14T13:02:43;20.70;99.90
29729;DHT22;20055;51.498;11.960;2022-10-14T13:08:19;21.20;99.90
29729;DHT22;20055;51.498;11.960;2022-10-14T13:19:03;20.70;99.90
29729;DHT22;20055;51.498;11.960;2022-10-14T13:24:12;20.20;99.90
29729;DHT22;20055;51.498;11.960;2022-10-14T13:29:47;20.50;99.90
29729;DHT22;20055;51.498;11.960;2022-10-14T13:36:15;20.40;99.90
29729;DHT22;20055;51.498;11.960;2022-10-14T13:38:25;20.10;99.90
29729;DHT22;20055;51.498;11.960;2022-10-14T13:40:55;20.70;99.90
29729;DHT22;20055;51.498;11.960;2022-10-14T13:43:38;20.40;99.90
29729;DHT22;20055;51.498;11.960;2022-10-14T13:46:37;20.40;99.90
29729;DHT22;20055;51.498;11.960;2022-10-14T13:49:13;20.60;99.90
29729;DHT22;20055;51.498;11.960;2022-10-14T13:54:28;20.50;99.90
29729;DHT22;20055;51.498;11.960;2022-10-14T13:57:14;20.60;99.90
29729;DHT22;20055;51.498;11.960;2022-10-14T13:59:51;20.60;99.90
29729;DHT22;20055;51.498;11.960;2022-10-14T14:02:24;20.60;99.90
29729;DHT22;20055;51.498;11.960;2022-10-14T14:04:54;20.50;99.90
29729;DHT22;20055;51.498;11.960;2022-10-14T14:07:23;20.40;99.90
29729;DHT22;20055;51.498;11.960;2022-10-14T14:10:00;20.60;99.90
29729;DHT22;20055;51.498;11.960;2022-10-14T14:12:28;20.70;99.90
29729;DHT22;20055;51.498;11.960;2022-10-14T14:14:57;20.30;99.90
29729;DHT22;20055;51.498;11.960;2022-10-14T14:17:30;20.30;99.90
29729;DHT22;20055;51.498;11.960;2022-10-14T14:19:58;20.20;99.90
29729;DHT22;20055;51.498;11.960;2022-10-14T14:22:30;20.20;99.90
29729;DHT22;20055;51.498;11.960;2022-10-14T14:25:20;20.10;99.90
29729;DHT22;20055;51.498;11.960;2022-10-14T14:28:00;20.20;99.90
29729;DHT22;20055;51.498;11.960;2022-10-14T14:30:37;20.20;99.90
29729;DHT22;20055;51.498;11.960;2022-10-14T14:33:15;19.90;99.90
29729;DHT22;20055;51.498;11.960;2022-10-14T14:35:53;20.00;99.90
29729;DHT22;20055;51.498;11.960;2022-10-14T14:38:25;20.30;99.90
29729;DHT22;20055;51.498;11.960;2022-10-14T14:41:13;19.80;99.90
29729;DHT22;20055;51.498;11.960;2022-10-14T14:43:45;20.10;99.90
29729;DHT22;20055;51.498;11.960;2022-10-14T14:46:32;19.60;99.90
29729;DHT22;20055;51.498;11.960;2022-10-14T14:49:01;19.80;99.90
29729;DHT22;20055;51.498;11.960;2022-10-14T14:51:36;19.60;99.90
29729;DHT22;20055;51.498;11.960;2022-10-14T14:54:05;19.60;99.90
29729;DHT22;20055;51.498;11.960;2022-10-14T14:56:46;19.40;99.90
29729;DHT22;20055;51.498;11.960;2022-10-14T14:59:21;19.80;99.90
29729;DHT22;20055;51.498;11.960;2022-10-14T15:01:54;19.50;99.90
29729;DHT22;20055;51.498;11.960;2022-10-14T15:04:30;19.00;99.90
29729;DHT22;20055;51.498;11.960;2022-10-14T15:07:04;19.30;99.90
29729;DHT22;20055;51.498;11.960;2022-10-14T15:12:18;18.90;99.90
29729;DHT22;20055;51.498;11.960;2022-10-14T15:14:53;19.50;99.90
29729;DHT22;20055;51.498;11.960;2022-10-14T15:17:36;19.30;99.90
29729;DHT22;20055;51.498;11.960;2022-10-14T15:22:36;18.70;99.90
29729;DHT22;20055;51.498;11.960;2022-10-14T15:28:00;18.90;99.90
29729;DHT22;20055;51.498;11.960;2022-10-14T15:30:49;19.00;99.90
29729;DHT22;20055;51.498;11.960;2022-10-14T15:33:28;18.20;99.90
29729;DHT22;20055;51.498;11.960;2022-10-14T15:35:59;18.80;99.90
29729;DHT22;20055;51.498;11.960;2022-10-14T15:38:28;18.80;99.90
29729;DHT22;20055;51.498;11.960;2022-10-14T15:40:57;18.60;99.90
29729;DHT22;20055;51.498;11.960;2022-10-14T15:43:29;18.60;99.90
29729;DHT22;20055;51.498;11.960;2022-10-14T15:45:59;18.40;99.90
29729;DHT22;20055;51.498;11.960;2022-10-14T15:48:49;18.10;99.90
29729;DHT22;20055;51.498;11.960;2022-10-14T15:51:28;18.50;99.90
29729;DHT22;20055;51.498;11.960;2022-10-14T15:53:58;18.20;99.90
29729;DHT22;20055;51.498;11.960;2022-10-14T15:56:34;18.60;99.90
29729;DHT22;20055;51.498;11.960;2022-10-14T15:59:00;18.10;99.90
29729;DHT22;20055;51.498;11.960;2022-10-14T16:01:27;19.80;99.90
29729;DHT22;20055;51.498;11.960;2022-10-14T16:04:05;18.40;99.90
29729;DHT22;20055;51.498;11.960;2022-10-14T16:06:35;18.20;99.90
29729;DHT22;20055;51.498;11.960;2022-10-14T16:09:21;18.40;99.90
29729;DHT22;20055;51.498;11.960;2022-10-14T16:11:48;18.10;99.90
29729;DHT22;20055;51.498;11.960;2022-10-14T16:14:23;18.00;99.90
29729;DHT22;20055;51.498;11.960;2022-10-14T16:16:54;18.30;99.90
29729;DHT22;20055;51.498;11.960;2022-10-14T16:19:21;18.10;99.90
29729;DHT22;20055;51.498;11.960;2022-10-14T16:21:47;17.90;99.90
29729;DHT22;20055;51.498;11.960;2022-10-14T16:24:21;18.20;99.90
29729;DHT22;20055;51.498;11.960;2022-10-14T16:26:50;17.40;99.90
29729;DHT22;20055;51.498;11.960;2022-10-14T16:29:20;18.00;99.90
29729;DHT22;20055;51.498;11.960;2022-10-14T16:31:47;17.60;99.90
29729;DHT22;20055;51.498;11.960;2022-10-14T16:34:21;17.70;99.90
29729;DHT22;20055;51.498;11.960;2022-10-14T16:36:49;17.90;99.90
29729;DHT22;20055;51.498;11.960;2022-10-14T16:39:17;17.90;99.90
29729;DHT22;20055;51.498;11.960;2022-10-14T16:41:49;17.70;99.90
29729;DHT22;20055;51.498;11.960;2022-10-14T16:44:16;17.60;99.90
29729;DHT22;20055;51.498;11.960;2022-10-14T16:46:57;17.70;99.90
29729;DHT22;20055;51.498;11.960;2022-10-14T16:49:46;17.50;99.90
29729;DHT22;20055;51.498;11.960;2022-10-14T16:52:13;17.80;99.90
29729;DHT22;20055;51.498;11.960;2022-10-14T16:54:39;17.80;99.90
29729;DHT22;20055;51.498;11.960;2022-10-14T16:57:06;17.60;99.90
29729;DHT22;20055;51.498;11.960;2022-10-14T16:59:32;17.60;99.90
29729;DHT22;20055;51.498;11.960;2022-10-14T17:02:02;17.20;99.90
29729;DHT22;20055;51.498;11.960;2022-10-14T17:04:28;17.60;99.90
29729;DHT22;20055;51.498;11.960;2022-10-14T17:06:57;17.30;99.90
29729;DHT22;20055;51.498;11.960;2022-10-14T17:09:24;17.50;99.90
29729;DHT22;20055;51.498;11.960;2022-10-14T17:11:53;17.70;99.90
29729;DHT22;20055;51.498;11.960;2022-10-14T17:14:22;17.30;99.90
29729;DHT22;20055;51.498;11.960;2022-10-14T17:16:49;17.60;99.90
29729;DHT22;20055;51.498;11.960;2022-10-14T17:19:21;17.00;99.90
29729;DHT22;20055;51.498;11.960;2022-10-14T17:21:48;17.40;99.90
29729;DHT22;20055;51.498;11.960;2022-10-14T17:24:15;17.60;99.90
29729;DHT22;20055;51.498;11.960;2022-10-14T17:26:46;17.30;99.90
29729;DHT22;20055;51.498;11.960;2022-10-14T17:29:15;16.80;99.90
29729;DHT22;20055;51.498;11.960;2022-10-14T17:31:43;17.20;99.90
29729;DHT22;20055;51.498;11.960;2022-10-14T17:34:13;17.10;99.90
29729;DHT22;20055;51.498;11.960;2022-10-14T17:36:42;17.10;99.90
29729;DHT22;20055;51.498;11.960;2022-10-14T17:39:13;17.00;99.90
29729;DHT22;20055;51.498;11.960;2022-10-14T17:41:46;17.00;99.90
29729;DHT22;20055;51.498;11.960;2022-10-14T17:44:13;16.70;99.90
29729;DHT22;20055;51.498;11.960;2022-10-14T17:46:45;16.90;99.90
29729;DHT22;20055;51.498;11.960;2022-10-14T17:49:15;16.80;99.90
29729;DHT22;20055;51.498;11.960;2022-10-14T17:51:44;16.20;99.90
29729;DHT22;20055;51.498;11.960;2022-10-14T17:54:15;16.40;99.90
29729;DHT22;20055;51.498;11.960;2022-10-14T17:56:42;16.50;99.90
29729;DHT22;20055;51.498;11.960;2022-10-14T17:59:10;16.40;99.90
29729;DHT22;20055;51.498;11.960;2022-10-14T18:01:39;16.80;99.90
29729;DHT22;20055;51.498;11.960;2022-10-14T18:04:05;16.80;99.90
29729;DHT22;20055;51.498;11.960;2022-10-14T18:06:35;16.80;99.90
29729;DHT22;20055;51.498;11.960;2022-10-14T18:09:11;16.60;99.90
29729;DHT22;20055;51.498;11.960;2022-10-14T18:11:40;16.70;99.90
29729;DHT22;20055;51.498;11.960;2022-10-14T18:14:11;16.90;99.90
29729;DHT22;20055;51.498;11.960;2022-10-14T18:16:39;16.60;99.90
29729;DHT22;20055;51.498;11.960;2022-10-14T18:19:11;16.70;99.90
29729;DHT22;20055;51.498;11.960;2022-10-14T18:21:41;16.70;99.90
29729;DHT22;20055;51.498;11.960;2022-10-14T18:24:12;16.20;99.90
29729;DHT22;20055;51.498;11.960;2022-10-14T18:26:38;16.80;99.90
29729;DHT22;20055;51.498;11.960;2022-10-14T18:29:09;16.70;99.90
29729;DHT22;20055;51.498;11.960;2022-10-14T18:31:38;16.90;99.90
29729;DHT22;20055;51.498;11.960;2022-10-14T18:34:13;16.70;99.90
29729;DHT22;20055;51.498;11.960;2022-10-14T18:36:39;16.60;99.90
29729;DHT22;20055;51.498;11.960;2022-10-14T18:39:10;16.30;99.90